Time;durP1;ratioP1;P1;durP2;ratioP2;P2;SDS_P1;SDS_P2;PMS_P1;PMS_P2;Temp;Humidity;BMP_temperature;BMP_pressure;BME280_temperature;BME280_humidity;BME280_pressure;Samples;Min_cycle;Max_cycle;Signal;HPM_P1;HPM_P2
2024/04/22 00:00:36;;;;;;;6.35;5.45;;;;;;;;;;5505052;26;19989;-49
2024/04/22 00:03:03;;;;;;;8.32;5.88;;;;;;;;;;5504447;26;19994;-43
2024/04/22 00:05:30;;;;;;;9.73;5.95;;;;;;;;;;5504838;26;20035;-49
2024/04/22 00:07:56;;;;;;;7.05;4.90;;;;;;;;;;5504062;26;19994;-49
2024/04/22 00:10:23;;;;;;;22.63;6.63;;;;;;;;;;5503972;26;19993;-48
2024/04/22 00:12:51;;;;;;;8.85;5.22;;;;;;;;;;5504231;26;19989;-49
2024/04/22 00:15:17;;;;;;;9.77;5.40;;;;;;;;;;5504357;26;20197;-49
2024/04/22 00:17:44;;;;;;;9.45;5.70;;;;;;;;;;5503958;26;20005;-52
2024/04/22 00:20:11;;;;;;;13.15;5.72;;;;;;;;;;5504544;26;19982;-45
2024/04/22 00:22:37;;;;;;;8.82;5.75;;;;;;;;;;5504536;26;20168;-43
2024/04/22 00:25:04;;;;;;;7.50;5.68;;;;;;;;;;5504643;26;20152;-45
2024/04/22 00:27:31;;;;;;;8.00;5.80;;;;;;;;;;5503679;26;19994;-48
2024/04/22 00:29:57;;;;;;;7.07;5.68;;;;;;;;;;5504390;26;20035;-47
2024/04/22 00:32:24;;;;;;;9.98;5.63;;;;;;;;;;5502978;26;20001;-45
2024/04/22 00:34:50;;;;;;;7.25;6.00;;;;;;;;;;5503660;26;20079;-43
2024/04/22 00:37:17;;;;;;;6.75;5.72;;;;;;;;;;5503016;26;19986;-42
2024/04/22 00:39:44;;;;;;;7.10;5.88;;;;;;;;;;5502294;26;19996;-42
2024/04/22 00:42:10;;;;;;;7.57;6.72;;;;;;;;;;5503364;26;19986;-39
2024/04/22 00:44:37;;;;;;;9.88;6.40;;;;;;;;;;5500245;26;19997;-42
2024/04/22 00:47:03;;;;;;;11.88;7.80;;;;;;;;;;5499978;26;19990;-43
2024/04/22 00:49:30;;;;;;;11.50;8.75;;;;;;;;;;5500223;26;20001;-46
2024/04/22 00:51:57;;;;;;;10.30;7.85;;;;;;;;;;5502401;26;19997;-42
2024/04/22 00:54:23;;;;;;;19.92;12.48;;;;;;;;;;5500805;26;19990;-42
2024/04/22 00:56:50;;;;;;;31.27;15.93;;;;;;;;;;5510119;26;20046;-39
2024/04/22 00:59:17;;;;;;;27.08;14.88;;;;;;;;;;5509028;25;19982;-43
2024/04/22 01:01:43;;;;;;;20.73;12.02;;;;;;;;;;5513474;26;19993;-50
2024/04/22 01:04:10;;;;;;;18.33;11.10;;;;;;;;;;5506807;26;19990;-43
2024/04/22 01:06:37;;;;;;;14.82;9.68;;;;;;;;;;5502596;26;20001;-44
2024/04/22 01:09:04;;;;;;;12.40;8.85;;;;;;;;;;5504965;26;20039;-42
2024/04/22 01:11:30;;;;;;;13.25;8.75;;;;;;;;;;5526407;26;20001;-48
2024/04/22 01:13:58;;;;;;;12.25;8.82;;;;;;;;;;5506528;26;19997;-42
2024/04/22 01:16:24;;;;;;;14.70;9.50;;;;;;;;;;5505541;26;20063;-42
2024/04/22 01:18:51;;;;;;;19.40;12.27;;;;;;;;;;5504388;26;19990;-41
2024/04/22 01:21:21;;;;;;;25.05;14.05;;;;;;;;;;5506409;26;20095;-40
2024/04/22 01:23:48;;;;;;;21.48;15.73;;;;;;;;;;5503553;26;20170;-39
2024/04/22 01:26:15;;;;;;;21.52;14.63;;;;;;;;;;5488536;26;19987;-41
2024/04/22 01:28:41;;;;;;;18.58;13.45;;;;;;;;;;5469608;26;19983;-45
2024/04/22 01:31:08;;;;;;;18.27;13.13;;;;;;;;;;5469707;26;19995;-42
2024/04/22 01:33:34;;;;;;;15.15;11.43;;;;;;;;;;5469523;26;19983;-44
2024/04/22 01:36:01;;;;;;;14.23;10.93;;;;;;;;;;5467738;26;19982;-41
2024/04/22 01:38:28;;;;;;;19.00;10.45;;;;;;;;;;5467189;26;19987;-44
2024/04/22 01:40:54;;;;;;;11.32;9.48;;;;;;;;;;5466621;26;19983;-45
2024/04/22 01:43:21;;;;;;;13.45;8.77;;;;;;;;;;5466673;26;19998;-47
2024/04/22 01:45:48;;;;;;;11.25;8.70;;;;;;;;;;5466630;26;19994;-47
2024/04/22 01:48:15;;;;;;;9.85;7.80;;;;;;;;;;5466320;26;19991;-46
2024/04/22 01:50:41;;;;;;;9.70;7.70;;;;;;;;;;5466552;26;19979;-53
2024/04/22 01:53:08;;;;;;;10.20;7.57;;;;;;;;;;5467473;26;19987;-46
2024/04/22 01:55:35;;;;;;;8.05;6.97;;;;;;;;;;5469077;26;19994;-52
2024/04/22 01:58:01;;;;;;;9.45;6.95;;;;;;;;;;5469164;26;19994;-48
2024/04/22 02:00:28;;;;;;;7.72;6.13;;;;;;;;;;5469246;26;19983;-41
2024/04/22 02:02:54;;;;;;;6.63;5.88;;;;;;;;;;5469065;26;20103;-44
2024/04/22 02:05:21;;;;;;;9.68;5.95;;;;;;;;;;5469294;26;20095;-44
2024/04/22 02:07:47;;;;;;;6.75;5.95;;;;;;;;;;5469109;26;20145;-41
2024/04/22 02:10:14;;;;;;;7.80;5.97;;;;;;;;;;5469003;26;19994;-43
2024/04/22 02:12:41;;;;;;;9.32;6.25;;;;;;;;;;5469086;26;20002;-51
2024/04/22 02:15:07;;;;;;;8.25;5.78;;;;;;;;;;5469192;26;20097;-47
2024/04/22 02:17:34;;;;;;;7.97;6.00;;;;;;;;;;5468880;26;19990;-40
2024/04/22 02:20:01;;;;;;;7.15;5.45;;;;;;;;;;5468916;26;19990;-41
2024/04/22 02:22:27;;;;;;;7.78;5.72;;;;;;;;;;5468591;26;20002;-42
2024/04/22 02:24:54;;;;;;;10.07;6.13;;;;;;;;;;5469001;26;19994;-43
2024/04/22 02:27:20;;;;;;;8.32;5.97;;;;;;;;;;5468674;26;20029;-38
2024/04/22 02:29:47;;;;;;;6.93;5.75;;;;;;;;;;5469177;26;20001;-44
2024/04/22 02:32:19;;;;;;;10.05;6.05;;;;;;;;;;5469270;26;19987;-42
2024/04/22 02:34:46;;;;;;;6.82;5.70;;;;;;;;;;5469170;26;19983;-44
2024/04/22 02:37:13;;;;;;;6.43;5.68;;;;;;;;;;5469095;26;19990;-50
2024/04/22 02:39:40;;;;;;;7.18;5.82;;;;;;;;;;5468523;26;20096;-44
2024/04/22 02:42:07;;;;;;;45.83;9.48;;;;;;;;;;5468726;26;19991;-43
2024/04/22 02:44:33;;;;;;;15.75;6.18;;;;;;;;;;5468804;26;20106;-52
2024/04/22 02:47:00;;;;;;;13.57;5.88;;;;;;;;;;5468617;26;20044;-42
2024/04/22 02:49:29;;;;;;;9.45;5.75;;;;;;;;;;5468656;26;19983;-45
2024/04/22 02:51:56;;;;;;;12.55;6.38;;;;;;;;;;5468671;26;19987;-42
2024/04/22 02:54:28;;;;;;;7.82;5.78;;;;;;;;;;5468974;26;19986;-49
2024/04/22 02:56:55;;;;;;;8.38;5.85;;;;;;;;;;5468588;26;20053;-41
2024/04/22 02:59:21;;;;;;;8.80;5.93;;;;;;;;;;5468666;26;20036;-44
2024/04/22 03:01:51;;;;;;;9.93;5.88;;;;;;;;;;5468465;26;19987;-45
2024/04/22 03:04:18;;;;;;;10.25;6.30;;;;;;;;;;5468764;26;19987;-39
2024/04/22 03:06:46;;;;;;;7.82;5.78;;;;;;;;;;5468588;26;20036;-40
2024/04/22 03:09:13;;;;;;;10.23;6.20;;;;;;;;;;5468075;26;19987;-42
2024/04/22 03:11:39;;;;;;;10.07;6.20;;;;;;;;;;5468363;26;19991;-47
2024/04/22 03:14:06;;;;;;;11.25;6.45;;;;;;;;;;5468285;26;19982;-46
2024/04/22 03:16:33;;;;;;;8.77;5.70;;;;;;;;;;5468168;26;20043;-42
2024/04/22 03:18:59;;;;;;;7.85;5.72;;;;;;;;;;5468344;26;20092;-43
2024/04/22 03:21:26;;;;;;;9.02;6.05;;;;;;;;;;5468275;26;19985;-50
2024/04/22 03:23:52;;;;;;;6.80;5.53;;;;;;;;;;5468369;26;19998;-51
2024/04/22 03:26:19;;;;;;;7.45;5.65;;;;;;;;;;5467990;26;20033;-43
2024/04/22 03:28:46;;;;;;;6.53;5.45;;;;;;;;;;5468170;26;19998;-46
2024/04/22 03:31:12;;;;;;;10.65;5.47;;;;;;;;;;5467735;26;19983;-41
2024/04/22 03:33:39;;;;;;;6.20;5.60;;;;;;;;;;5467719;26;20096;-43
2024/04/22 03:36:06;;;;;;;6.75;5.25;;;;;;;;;;5468323;26;19983;-48
2024/04/22 03:38:32;;;;;;;6.88;5.88;;;;;;;;;;5467762;26;20196;-48
2024/04/22 03:40:59;;;;;;;7.70;5.70;;;;;;;;;;5468135;26;19994;-40
2024/04/22 03:43:25;;;;;;;8.07;5.80;;;;;;;;;;5467814;26;19990;-45
2024/04/22 03:51:22;;;;;;;6.60;5.45;;;;;;;;;;5467612;26;20036;-38
2024/04/22 03:53:48;;;;;;;8.27;5.30;;;;;;;;;;5467844;26;20164;-37
2024/04/22 03:56:15;;;;;;;7.57;5.60;;;;;;;;;;5467892;26;20084;-42
2024/04/22 03:58:41;;;;;;;7.20;5.60;;;;;;;;;;5467543;26;20420;-42
2024/04/22 04:01:08;;;;;;;7.82;5.80;;;;;;;;;;5467903;26;20052;-42
2024/04/22 04:03:34;;;;;;;7.75;5.22;;;;;;;;;;5467839;26;20134;-45
2024/04/22 04:06:01;;;;;;;9.43;5.80;;;;;;;;;;5468040;26;20113;-48
2024/04/22 04:08:28;;;;;;;9.23;6.45;;;;;;;;;;5467476;26;20050;-42
2024/04/22 04:10:59;;;;;;;6.63;5.15;;;;;;;;;;5467579;26;19986;-43
2024/04/22 04:13:26;;;;;;;10.73;5.40;;;;;;;;;;5467279;26;20109;-49
2024/04/22 04:15:53;;;;;;;6.25;5.53;;;;;;;;;;5467534;26;20064;-41
2024/04/22 04:18:19;;;;;;;7.57;5.53;;;;;;;;;;5467307;26;20045;-41
2024/04/22 04:20:46;;;;;;;6.57;5.82;;;;;;;;;;5467318;26;20014;-44
2024/04/22 04:23:13;;;;;;;10.10;5.80;;;;;;;;;;5467324;26;20259;-46
2024/04/22 04:25:40;;;;;;;7.78;5.68;;;;;;;;;;5467275;26;19987;-41
2024/04/22 04:28:07;;;;;;;7.05;5.80;;;;;;;;;;5467589;26;19991;-40
2024/04/22 04:30:33;;;;;;;6.18;5.40;;;;;;;;;;5467085;26;19982;-43
2024/04/22 04:33:00;;;;;;;8.68;6.22;;;;;;;;;;5467323;26;19982;-46
2024/04/22 04:35:26;;;;;;;9.85;5.95;;;;;;;;;;5467192;26;19987;-40
2024/04/22 04:37:53;;;;;;;6.53;5.80;;;;;;;;;;5466915;26;19995;-43
2024/04/22 04:40:19;;;;;;;6.80;5.43;;;;;;;;;;5467207;26;19987;-41
2024/04/22 04:42:46;;;;;;;8.25;5.97;;;;;;;;;;5466591;26;19990;-40
2024/04/22 04:45:12;;;;;;;9.25;6.03;;;;;;;;;;5465811;26;19987;-44
2024/04/22 04:47:39;;;;;;;9.00;5.72;;;;;;;;;;5466778;26;19993;-40
2024/04/22 04:50:06;;;;;;;6.53;5.72;;;;;;;;;;5466860;26;19991;-44
2024/04/22 04:52:32;;;;;;;8.55;6.35;;;;;;;;;;5466495;26;19994;-43
2024/04/22 04:54:59;;;;;;;6.32;5.53;;;;;;;;;;5466838;26;19991;-43
2024/04/22 04:57:25;;;;;;;6.55;5.68;;;;;;;;;;5466705;26;20196;-43
2024/04/22 04:59:52;;;;;;;8.07;5.80;;;;;;;;;;5466757;26;20089;-41
2024/04/22 05:02:19;;;;;;;7.90;6.00;;;;;;;;;;5466548;26;19983;-45
2024/04/22 05:04:45;;;;;;;8.43;5.78;;;;;;;;;;5466855;26;20010;-40
2024/04/22 05:07:12;;;;;;;6.68;5.53;;;;;;;;;;5466476;26;19987;-47
2024/04/22 05:09:38;;;;;;;6.38;5.53;;;;;;;;;;5466515;26;19987;-42
2024/04/22 05:12:05;;;;;;;6.35;5.72;;;;;;;;;;5466581;26;19994;-43
2024/04/22 05:14:31;;;;;;;6.53;5.75;;;;;;;;;;5466139;26;19991;-45
2024/04/22 05:16:58;;;;;;;6.03;5.43;;;;;;;;;;5466517;26;19983;-40
2024/04/22 05:19:24;;;;;;;8.23;6.07;;;;;;;;;;5466447;26;20040;-50
2024/04/22 05:21:51;;;;;;;8.60;5.50;;;;;;;;;;5466103;26;20020;-41
2024/04/22 05:24:18;;;;;;;6.75;5.65;;;;;;;;;;5466157;26;19999;-46
2024/04/22 05:26:45;;;;;;;5.70;4.93;;;;;;;;;;5466272;26;19999;-43
2024/04/22 05:29:12;;;;;;;8.68;5.75;;;;;;;;;;5465939;26;19995;-47
2024/04/22 05:31:38;;;;;;;8.30;5.97;;;;;;;;;;5466284;26;20028;-48
2024/04/22 05:36:50;;;;;;;7.60;5.60;;;;;;;;;;5466142;26;20002;-45
2024/04/22 05:39:17;;;;;;;5.95;5.15;;;;;;;;;;5466235;26;19987;-43
2024/04/22 05:41:43;;;;;;;6.78;5.88;;;;;;;;;;5466005;26;20055;-44
2024/04/22 05:44:10;;;;;;;7.65;5.13;;;;;;;;;;5465905;26;20044;-52
2024/04/22 05:46:36;;;;;;;8.65;5.82;;;;;;;;;;5466124;26;20048;-52
2024/04/22 05:49:03;;;;;;;8.70;5.07;;;;;;;;;;5465650;26;19983;-51
2024/04/22 05:51:30;;;;;;;7.43;5.38;;;;;;;;;;5465741;26;20085;-41
2024/04/22 05:53:56;;;;;;;8.23;5.28;;;;;;;;;;5466012;26;19987;-47
2024/04/22 05:56:23;;;;;;;9.70;5.00;;;;;;;;;;5469393;26;20006;-42
2024/04/22 05:58:50;;;;;;;7.90;5.60;;;;;;;;;;5469345;26;19989;-46
2024/04/22 06:01:17;;;;;;;6.30;5.15;;;;;;;;;;5469341;26;19983;-45
2024/04/22 06:03:43;;;;;;;6.55;4.90;;;;;;;;;;5469809;26;19994;-42
2024/04/22 06:06:10;;;;;;;7.63;5.53;;;;;;;;;;5469457;26;19999;-42
2024/04/22 06:08:36;;;;;;;8.55;4.85;;;;;;;;;;5469046;26;20204;-42
2024/04/22 06:11:03;;;;;;;5.68;5.03;;;;;;;;;;5469489;26;19994;-47
2024/04/22 06:13:30;;;;;;;6.00;4.90;;;;;;;;;;5469060;26;20213;-43
2024/04/22 06:15:57;;;;;;;6.65;4.88;;;;;;;;;;5469191;26;19987;-46
2024/04/22 06:18:24;;;;;;;9.70;4.75;;;;;;;;;;5469232;26;20043;-48
2024/04/22 06:20:50;;;;;;;9.13;5.03;;;;;;;;;;5468890;26;19994;-44
2024/04/22 06:23:17;;;;;;;5.68;4.63;;;;;;;;;;5469312;26;19983;-45
2024/04/22 06:25:43;;;;;;;7.00;4.30;;;;;;;;;;5469071;26;20010;-51
2024/04/22 06:28:10;;;;;;;5.85;4.82;;;;;;;;;;5468498;26;19993;-43
2024/04/22 06:30:37;;;;;;;8.15;4.95;;;;;;;;;;5469013;26;20153;-43
2024/04/22 06:33:03;;;;;;;7.03;5.25;;;;;;;;;;5468857;26;20011;-43
2024/04/22 06:35:30;;;;;;;6.60;4.43;;;;;;;;;;5468883;26;19990;-42
2024/04/22 06:37:56;;;;;;;5.25;3.72;;;;;;;;;;5468843;26;20007;-43
2024/04/22 06:40:23;;;;;;;5.35;4.07;;;;;;;;;;5468841;26;19997;-43
2024/04/22 06:42:50;;;;;;;6.93;4.15;;;;;;;;;;5468848;26;19999;-44
2024/04/22 06:45:16;;;;;;;7.93;3.85;;;;;;;;;;5468770;26;20351;-42
2024/04/22 06:47:43;;;;;;;7.60;4.32;;;;;;;;;;5468717;26;20024;-44
2024/04/22 06:50:09;;;;;;;6.30;3.63;;;;;;;;;;5469206;26;19989;-45
2024/04/22 06:52:36;;;;;;;5.30;3.63;;;;;;;;;;5468406;26;19978;-43
2024/04/22 06:55:03;;;;;;;6.03;3.47;;;;;;;;;;5468811;26;20001;-46
2024/04/22 06:57:29;;;;;;;9.80;3.78;;;;;;;;;;5468459;26;19983;-41
2024/04/22 06:59:56;;;;;;;5.55;3.72;;;;;;;;;;5468494;26;19986;-43
2024/04/22 07:02:24;;;;;;;6.75;3.50;;;;;;;;;;5468360;26;20134;-57
2024/04/22 07:04:51;;;;;;;5.95;3.45;;;;;;;;;;5468623;26;20092;-54
2024/04/22 07:07:18;;;;;;;5.88;3.13;;;;;;;;;;5467366;26;19995;-44
2024/04/22 07:09:45;;;;;;;3.85;3.13;;;;;;;;;;5468361;26;20073;-49
2024/04/22 07:12:11;;;;;;;4.70;3.38;;;;;;;;;;5468613;26;19993;-43
2024/04/22 07:14:38;;;;;;;3.85;2.97;;;;;;;;;;5468484;26;20019;-52
2024/04/22 07:17:04;;;;;;;5.25;2.88;;;;;;;;;;5468347;26;20088;-43
2024/04/22 07:19:31;;;;;;;6.88;3.40;;;;;;;;;;5468346;26;20002;-40
2024/04/22 07:22:00;;;;;;;3.70;3.10;;;;;;;;;;5468209;26;19983;-45
2024/04/22 07:24:27;;;;;;;3.30;3.00;;;;;;;;;;5468170;26;19998;-42
2024/04/22 07:26:53;;;;;;;4.00;3.00;;;;;;;;;;5468413;26;19993;-48
2024/04/22 07:29:20;;;;;;;7.63;2.88;;;;;;;;;;5467947;26;20020;-43
2024/04/22 07:31:47;;;;;;;5.53;3.03;;;;;;;;;;5468275;26;19991;-44
2024/04/22 07:34:14;;;;;;;4.55;3.05;;;;;;;;;;5468232;26;20145;-47
2024/04/22 07:36:45;;;;;;;5.38;3.60;;;;;;;;;;5467922;26;20005;-41
2024/04/22 07:39:17;;;;;;;7.25;3.80;;;;;;;;;;5497345;26;20014;-43
2024/04/22 07:41:43;;;;;;;5.70;3.53;;;;;;;;;;5468107;26;19997;-47
2024/04/22 07:44:10;;;;;;;7.25;3.45;;;;;;;;;;5467772;26;20231;-45
2024/04/22 07:46:37;;;;;;;5.28;3.78;;;;;;;;;;5468257;26;19990;-45
2024/04/22 07:49:03;;;;;;;5.68;3.65;;;;;;;;;;5468026;26;20015;-44
2024/04/22 07:51:30;;;;;;;4.13;3.58;;;;;;;;;;5467748;26;20012;-45
2024/04/22 07:53:58;;;;;;;7.63;3.60;;;;;;;;;;5467819;26;20099;-43
2024/04/22 07:56:24;;;;;;;4.97;3.17;;;;;;;;;;5467702;26;19994;-42
2024/04/22 07:58:51;;;;;;;4.30;3.30;;;;;;;;;;5467705;26;20043;-43
2024/04/22 08:01:18;;;;;;;5.78;3.47;;;;;;;;;;5468041;26;19983;-45
2024/04/22 08:03:44;;;;;;;4.65;3.15;;;;;;;;;;5467714;26;20041;-43
2024/04/22 08:06:14;;;;;;;6.28;3.10;;;;;;;;;;5467873;26;19986;-44
2024/04/22 08:08:40;;;;;;;4.20;3.30;;;;;;;;;;5467519;26;20040;-42
2024/04/22 08:11:07;;;;;;;4.38;3.17;;;;;;;;;;5467594;26;19986;-44
2024/04/22 08:13:34;;;;;;;6.60;3.15;;;;;;;;;;5467482;26;19999;-45
2024/04/22 08:16:00;;;;;;;7.10;3.08;;;;;;;;;;5467463;26;20087;-47
2024/04/22 08:18:27;;;;;;;6.10;3.10;;;;;;;;;;5467354;26;19986;-46
2024/04/22 08:20:53;;;;;;;5.93;3.20;;;;;;;;;;5467754;26;20039;-43
2024/04/22 08:23:20;;;;;;;7.05;2.95;;;;;;;;;;5467645;26;19987;-46
2024/04/22 08:25:47;;;;;;;4.63;2.92;;;;;;;;;;5467719;26;19983;-42
2024/04/22 08:28:13;;;;;;;3.42;3.05;;;;;;;;;;5467122;26;19995;-43
2024/04/22 08:30:40;;;;;;;3.67;2.58;;;;;;;;;;5467204;26;19983;-50
2024/04/22 08:33:07;;;;;;;5.38;3.20;;;;;;;;;;5467166;26;19991;-48
2024/04/22 08:35:33;;;;;;;5.53;3.10;;;;;;;;;;5467392;26;19995;-43
2024/04/22 08:38:00;;;;;;;6.35;2.92;;;;;;;;;;5467208;26;19991;-51
2024/04/22 08:40:27;;;;;;;6.15;3.20;;;;;;;;;;5467152;26;19994;-44
2024/04/22 08:42:56;;;;;;;5.95;2.85;;;;;;;;;;5466844;26;19988;-41
2024/04/22 08:45:22;;;;;;;5.38;2.88;;;;;;;;;;5467109;26;20079;-41
2024/04/22 08:47:49;;;;;;;3.75;2.58;;;;;;;;;;5467085;26;19995;-42
2024/04/22 08:50:15;;;;;;;6.55;3.10;;;;;;;;;;5466819;26;19987;-43
2024/04/22 08:52:42;;;;;;;3.92;3.03;;;;;;;;;;5466903;26;19991;-45
2024/04/22 08:55:08;;;;;;;2.92;2.47;;;;;;;;;;5467097;26;19987;-53
2024/04/22 08:57:35;;;;;;;4.72;3.10;;;;;;;;;;5466685;26;20040;-51
2024/04/22 09:00:02;;;;;;;4.60;3.10;;;;;;;;;;5466840;26;19979;-52
2024/04/22 09:02:28;;;;;;;4.40;3.10;;;;;;;;;;5466570;26;20036;-43
2024/04/22 09:04:55;;;;;;;4.60;3.03;;;;;;;;;;5466746;26;19983;-42
2024/04/22 09:07:22;;;;;;;5.30;3.30;;;;;;;;;;5466663;26;19991;-48
2024/04/22 09:09:48;;;;;;;5.88;3.22;;;;;;;;;;5466601;26;20044;-48
2024/04/22 09:12:19;;;;;;;5.80;3.45;;;;;;;;;;5466659;26;19991;-44
2024/04/22 09:14:45;;;;;;;3.67;2.70;;;;;;;;;;5466596;26;20045;-41
2024/04/22 09:17:15;;;;;;;8.82;3.00;;;;;;;;;;5466514;26;20096;-45
2024/04/22 09:19:45;;;;;;;4.10;3.13;;;;;;;;;;5466171;26;19999;-50
2024/04/22 09:22:11;;;;;;;5.47;3.05;;;;;;;;;;5466419;26;20007;-45
2024/04/22 09:24:38;;;;;;;4.38;3.03;;;;;;;;;;5466426;26;19983;-48
2024/04/22 09:27:05;;;;;;;4.90;2.92;;;;;;;;;;5466134;26;19995;-45
2024/04/22 09:29:33;;;;;;;6.32;3.28;;;;;;;;;;5466566;26;19993;-47
2024/04/22 09:32:02;;;;;;;7.65;3.17;;;;;;;;;;5469861;26;19993;-48
2024/04/22 09:34:31;;;;;;;6.03;3.10;;;;;;;;;;5469605;26;19983;-40
2024/04/22 09:37:00;;;;;;;7.10;3.40;;;;;;;;;;5469773;26;19990;-44
2024/04/22 09:39:27;;;;;;;4.78;3.05;;;;;;;;;;5469536;26;20083;-49
2024/04/22 09:41:54;;;;;;;4.78;3.03;;;;;;;;;;5469735;26;19987;-41
2024/04/22 09:44:21;;;;;;;5.30;3.30;;;;;;;;;;5469651;26;19982;-41
2024/04/22 09:46:50;;;;;;;5.72;3.70;;;;;;;;;;5469768;26;19998;-43
2024/04/22 09:49:18;;;;;;;8.38;3.40;;;;;;;;;;5469327;26;19994;-42
2024/04/22 09:51:46;;;;;;;8.32;3.58;;;;;;;;;;5469731;26;20061;-48
2024/04/22 09:54:13;;;;;;;6.47;3.20;;;;;;;;;;5469356;26;19987;-55
2024/04/22 09:56:39;;;;;;;6.82;3.95;;;;;;;;;;5469441;26;19998;-47
2024/04/22 09:59:07;;;;;;;7.72;3.75;;;;;;;;;;5469465;26;19987;-47
2024/04/22 10:01:33;;;;;;;6.40;3.25;;;;;;;;;;5469567;26;20047;-43
2024/04/22 10:04:00;;;;;;;5.10;3.60;;;;;;;;;;5469041;26;19986;-42
2024/04/22 10:06:27;;;;;;;9.40;3.80;;;;;;;;;;5469364;26;19986;-44
2024/04/22 10:08:53;;;;;;;5.88;3.55;;;;;;;;;;5469169;26;19990;-45
2024/04/22 10:11:22;;;;;;;8.32;3.65;;;;;;;;;;5469019;26;19994;-46
2024/04/22 10:13:48;;;;;;;5.03;3.67;;;;;;;;;;5469196;26;19982;-47
2024/04/22 10:16:15;;;;;;;6.18;3.45;;;;;;;;;;5469167;26;19991;-42
2024/04/22 10:18:48;;;;;;;5.50;3.28;;;;;;;;;;5469083;26;19986;-42
2024/04/22 10:21:15;;;;;;;5.78;3.88;;;;;;;;;;5469514;26;19989;-47
2024/04/22 10:23:41;;;;;;;8.27;3.33;;;;;;;;;;5469149;26;20015;-53
2024/04/22 10:26:20;;;;;;;6.85;4.15;;;;;;;;;;5469210;26;19979;-41
2024/04/22 10:28:47;;;;;;;6.80;3.83;;;;;;;;;;5498564;26;19994;-45
2024/04/22 10:31:21;;;;;;;5.20;3.70;;;;;;;;;;5505251;26;19990;-44
2024/04/22 10:33:48;;;;;;;6.72;3.20;;;;;;;;;;5505498;26;19986;-42
2024/04/22 10:36:15;;;;;;;9.25;3.67;;;;;;;;;;5505645;26;20010;-40
2024/04/22 10:38:42;;;;;;;8.52;3.78;;;;;;;;;;5505034;26;20207;-48
2024/04/22 10:41:10;;;;;;;9.48;3.38;;;;;;;;;;5504231;26;20195;-46
2024/04/22 10:43:38;;;;;;;5.68;3.25;;;;;;;;;;5504952;26;19985;-45
2024/04/22 10:46:04;;;;;;;6.18;3.67;;;;;;;;;;5505309;26;20006;-40
2024/04/22 10:48:31;;;;;;;5.93;3.50;;;;;;;;;;5505391;26;19990;-45
2024/04/22 10:50:57;;;;;;;3.95;3.03;;;;;;;;;;5505462;26;19986;-46
2024/04/22 10:53:24;;;;;;;9.20;4.05;;;;;;;;;;5504883;26;19997;-41
2024/04/22 10:55:51;;;;;;;12.00;4.20;;;;;;;;;;5505104;26;19990;-41
2024/04/22 10:58:17;;;;;;;6.35;3.70;;;;;;;;;;5504912;26;19993;-40
2024/04/22 11:00:46;;;;;;;11.23;4.00;;;;;;;;;;5505249;26;19994;-46
2024/04/22 11:03:12;;;;;;;11.07;3.90;;;;;;;;;;5505083;26;19986;-46
2024/04/22 11:05:39;;;;;;;10.65;4.28;;;;;;;;;;5505068;26;19986;-42
2024/04/22 11:08:07;;;;;;;10.48;4.30;;;;;;;;;;5504664;26;19986;-42
2024/04/22 11:10:34;;;;;;;10.50;4.15;;;;;;;;;;5505175;26;19986;-53
2024/04/22 11:13:01;;;;;;;6.03;4.10;;;;;;;;;;5504561;26;19990;-46
2024/04/22 11:15:28;;;;;;;10.35;4.50;;;;;;;;;;5504340;26;20043;-47
2024/04/22 11:18:04;;;;;;;6.57;4.28;;;;;;;;;;5504681;26;19986;-44
2024/04/22 11:20:31;;;;;;;7.13;3.78;;;;;;;;;;5504914;26;20037;-42
2024/04/22 11:22:58;;;;;;;11.00;7.07;;;;;;;;;;5504327;26;19991;-49
2024/04/22 11:25:24;;;;;;;543.92;500.27;;;;;;;;;;5493196;26;20128;-42
2024/04/22 11:27:51;;;;;;;61.20;55.70;;;;;;;;;;5504475;26;20001;-47
2024/04/22 11:30:17;;;;;;;34.88;31.80;;;;;;;;;;5507134;26;20122;-44
2024/04/22 11:32:44;;;;;;;21.17;19.17;;;;;;;;;;5522107;26;20234;-42
2024/04/22 11:35:10;;;;;;;19.92;17.88;;;;;;;;;;5524843;25;20000;-41
2024/04/22 11:37:37;;;;;;;17.90;15.68;;;;;;;;;;5504567;26;19990;-45
2024/04/22 11:40:04;;;;;;;15.57;13.82;;;;;;;;;;5501366;26;19982;-51
2024/04/22 11:42:31;;;;;;;12.75;8.85;;;;;;;;;;5516737;26;20002;-43
2024/04/22 11:44:57;;;;;;;12.63;7.22;;;;;;;;;;5502284;26;19986;-46
2024/04/22 11:47:27;;;;;;;12.73;7.07;;;;;;;;;;5500793;26;20138;-43
2024/04/22 11:49:54;;;;;;;10.07;6.40;;;;;;;;;;5500922;26;20009;-49
2024/04/22 11:52:21;;;;;;;11.77;6.35;;;;;;;;;;5496049;26;20024;-49
2024/04/22 11:54:47;;;;;;;22.13;7.38;;;;;;;;;;5501338;26;19986;-50
2024/04/22 11:57:14;;;;;;;11.55;6.15;;;;;;;;;;5502198;26;19990;-51
2024/04/22 11:59:41;;;;;;;8.57;5.63;;;;;;;;;;5501010;26;20455;-46
2024/04/22 12:02:08;;;;;;;10.25;6.70;;;;;;;;;;5502058;26;20091;-45
2024/04/22 12:04:35;;;;;;;14.15;6.85;;;;;;;;;;5499714;26;20077;-43
2024/04/22 12:07:01;;;;;;;65.97;25.02;;;;;;;;;;5485317;26;19987;-52
2024/04/22 12:09:28;;;;;;;23.20;9.80;;;;;;;;;;5471722;26;19997;-43
2024/04/22 12:11:55;;;;;;;13.00;6.85;;;;;;;;;;5511278;26;19985;-43
2024/04/22 12:14:21;;;;;;;10.82;6.72;;;;;;;;;;5508335;26;20009;-43
2024/04/22 12:16:48;;;;;;;15.40;6.53;;;;;;;;;;5520239;26;20005;-50
2024/04/22 12:19:15;;;;;;;14.80;7.38;;;;;;;;;;5503794;26;20098;-50
2024/04/22 12:21:41;;;;;;;11.02;6.85;;;;;;;;;;5503827;26;20075;-47
2024/04/22 12:24:08;;;;;;;11.93;6.88;;;;;;;;;;5503272;26;19994;-41
2024/04/22 12:26:35;;;;;;;12.10;6.20;;;;;;;;;;5503719;26;20002;-45
2024/04/22 12:29:01;;;;;;;13.45;6.70;;;;;;;;;;5503469;26;19982;-46
2024/04/22 12:31:28;;;;;;;10.27;5.40;;;;;;;;;;5505526;26;20010;-57
2024/04/22 12:33:54;;;;;;;9.10;5.47;;;;;;;;;;5522301;26;20216;-40
2024/04/22 12:36:21;;;;;;;8.93;5.60;;;;;;;;;;5503728;26;20030;-42
2024/04/22 12:38:47;;;;;;;10.32;5.22;;;;;;;;;;5499772;26;20001;-48
2024/04/22 12:41:14;;;;;;;17.42;7.03;;;;;;;;;;5485839;26;20018;-44
2024/04/22 12:43:43;;;;;;;12.80;6.50;;;;;;;;;;5503342;26;19994;-59
2024/04/22 12:46:09;;;;;;;12.98;5.68;;;;;;;;;;5502345;26;20130;-40
2024/04/22 12:51:21;;;;;;;11.45;5.70;;;;;;;;;;5503607;26;20042;-43
2024/04/22 12:53:47;;;;;;;8.05;4.18;;;;;;;;;;5503285;26;20078;-39
2024/04/22 12:56:14;;;;;;;7.47;4.70;;;;;;;;;;5503293;26;19986;-42
2024/04/22 12:58:41;;;;;;;9.60;4.95;;;;;;;;;;5484163;25;19998;-42
2024/04/22 13:01:09;;;;;;;8.52;4.88;;;;;;;;;;5507846;26;20002;-44
2024/04/22 13:03:35;;;;;;;9.77;4.80;;;;;;;;;;5513880;26;20062;-41
2024/04/22 13:06:03;;;;;;;9.88;4.55;;;;;;;;;;5507564;26;20084;-41
2024/04/22 13:08:29;;;;;;;8.48;4.60;;;;;;;;;;5517382;25;20207;-47
2024/04/22 13:10:56;;;;;;;7.47;4.57;;;;;;;;;;5503195;26;20051;-56
2024/04/22 13:13:22;;;;;;;9.85;4.53;;;;;;;;;;5502366;26;20023;-44
2024/04/22 13:15:49;;;;;;;8.45;4.20;;;;;;;;;;5497527;26;19986;-49
2024/04/22 13:18:16;;;;;;;8.40;4.25;;;;;;;;;;5517142;26;19994;-45
2024/04/22 13:20:43;;;;;;;4.88;3.75;;;;;;;;;;5485148;26;19990;-48
2024/04/22 13:23:09;;;;;;;6.07;3.97;;;;;;;;;;5502792;26;19990;-41
2024/04/22 13:25:36;;;;;;;6.00;3.70;;;;;;;;;;5502989;26;19989;-47
2024/04/22 13:28:05;;;;;;;6.20;3.95;;;;;;;;;;5502861;26;19990;-48
2024/04/22 13:30:32;;;;;;;5.63;3.97;;;;;;;;;;5502828;26;20030;-45
2024/04/22 13:32:59;;;;;;;6.85;3.85;;;;;;;;;;5502578;26;19997;-52
2024/04/22 13:35:25;;;;;;;9.02;3.78;;;;;;;;;;5502894;26;19985;-52
2024/04/22 13:37:52;;;;;;;7.18;3.85;;;;;;;;;;5502526;26;20006;-52
2024/04/22 13:40:19;;;;;;;5.18;3.13;;;;;;;;;;5501134;26;19997;-51
2024/04/22 13:42:45;;;;;;;3.90;2.92;;;;;;;;;;5506626;26;20030;-43
2024/04/22 13:45:12;;;;;;;7.25;3.13;;;;;;;;;;5502178;26;19986;-41
2024/04/22 13:47:39;;;;;;;4.32;2.58;;;;;;;;;;5466030;26;20052;-48
2024/04/22 13:50:05;;;;;;;3.80;2.40;;;;;;;;;;5465891;26;19999;-41
2024/04/22 13:52:32;;;;;;;4.55;2.40;;;;;;;;;;5466351;26;20240;-46
2024/04/22 13:54:59;;;;;;;4.95;2.42;;;;;;;;;;5482658;26;19998;-42
2024/04/22 13:57:25;;;;;;;3.50;2.17;;;;;;;;;;5502152;26;20021;-40
2024/04/22 13:59:52;;;;;;;7.13;2.20;;;;;;;;;;5501939;26;20001;-51
2024/04/22 14:02:18;;;;;;;3.65;2.03;;;;;;;;;;5502198;26;20105;-44
2024/04/22 14:04:45;;;;;;;9.90;3.08;;;;;;;;;;5501833;26;20067;-49
2024/04/22 14:07:14;;;;;;;7.15;2.85;;;;;;;;;;5501659;26;20091;-50
2024/04/22 14:09:41;;;;;;;5.63;2.83;;;;;;;;;;5501888;26;19986;-50
2024/04/22 14:12:08;;;;;;;9.70;3.30;;;;;;;;;;5501897;26;19986;-41
2024/04/22 14:14:35;;;;;;;7.53;3.75;;;;;;;;;;5501701;26;20091;-44
2024/04/22 14:17:01;;;;;;;8.68;4.60;;;;;;;;;;5504481;26;20067;-59
2024/04/22 14:19:28;;;;;;;10.02;3.70;;;;;;;;;;5505547;26;20112;-52
2024/04/22 14:21:55;;;;;;;5.80;3.10;;;;;;;;;;5519300;26;20208;-42
2024/04/22 14:24:21;;;;;;;8.63;2.83;;;;;;;;;;5526423;26;19996;-47
2024/04/22 14:26:48;;;;;;;9.93;2.95;;;;;;;;;;5485081;26;19998;-46
2024/04/22 14:29:15;;;;;;;12.02;2.65;;;;;;;;;;5468694;26;19991;-54
2024/04/22 14:31:41;;;;;;;12.25;2.97;;;;;;;;;;5469071;26;20038;-43
2024/04/22 14:34:08;;;;;;;11.40;3.00;;;;;;;;;;5469119;26;19994;-43
2024/04/22 14:36:34;;;;;;;6.80;2.67;;;;;;;;;;5468855;26;20043;-43
2024/04/22 14:39:01;;;;;;;22.42;4.15;;;;;;;;;;5502978;26;20167;-41
2024/04/22 14:41:27;;;;;;;7.28;2.83;;;;;;;;;;5503616;26;20199;-61
2024/04/22 14:43:54;;;;;;;6.20;2.25;;;;;;;;;;5527988;26;20047;-52
2024/04/22 14:46:23;;;;;;;5.32;2.40;;;;;;;;;;5504824;26;20009;-43